Time;durP1;ratioP1;P1;durP2;ratioP2;P2;SDS_P1;SDS_P2;PMS_P1;PMS_P2;Temp;Humidity;BMP_temperature;BMP_pressure;BME280_temperature;BME280_humidity;BME280_pressure;Samples;Min_cycle;Max_cycle;Signal;HPM_P1;HPM_P2
2023/06/30 00:01:19;;;;;;;17.17;3.95;;;16.60;99.90;;;;;;5052088;28;20033;-72
2023/06/30 00:03:45;;;;;;;16.00;3.80;;;16.60;99.90;;;;;;5051574;28;20064;-73
2023/06/30 00:06:11;;;;;;;17.42;4.38;;;16.50;99.90;;;;;;5052014;28;20099;-72
2023/06/30 00:08:37;;;;;;;18.30;4.65;;;16.50;99.90;;;;;;5051483;28;20025;-73
2023/06/30 00:11:03;;;;;;;15.98;3.85;;;16.50;99.90;;;;;;5050479;28;20056;-72
2023/06/30 00:13:28;;;;;;;15.45;3.40;;;16.50;99.90;;;;;;5052174;28;20037;-72
2023/06/30 00:15:55;;;;;;;17.05;4.32;;;16.50;99.90;;;;;;5051337;28;20274;-72
2023/06/30 00:18:21;;;;;;;12.05;3.42;;;16.50;99.90;;;;;;5051748;28;20032;-72
2023/06/30 00:20:47;;;;;;;16.20;3.72;;;16.50;99.90;;;;;;5050947;28;20111;-72
2023/06/30 00:23:13;;;;;;;8.93;3.35;;;16.50;99.90;;;;;;5051752;28;20104;-72
2023/06/30 00:25:39;;;;;;;13.63;4.00;;;16.50;99.90;;;;;;5051188;28;20147;-72
2023/06/30 00:28:05;;;;;;;13.25;3.72;;;16.60;99.90;;;;;;5052094;28;20053;-71
2023/06/30 00:30:30;;;;;;;15.25;4.03;;;16.50;99.90;;;;;;5051323;28;20028;-71
2023/06/30 00:32:56;;;;;;;13.90;3.58;;;16.50;99.90;;;;;;5050702;28;20712;-72
2023/06/30 00:35:22;;;;;;;17.58;4.03;;;16.50;99.90;;;;;;5051060;28;20443;-72
2023/06/30 00:37:48;;;;;;;18.55;3.63;;;16.50;99.90;;;;;;5050976;28;20115;-72
2023/06/30 00:40:16;;;;;;;15.60;3.83;;;16.50;99.90;;;;;;5051045;28;20394;-72
2023/06/30 00:42:42;;;;;;;17.60;3.33;;;16.50;99.90;;;;;;5050871;28;20041;-72
2023/06/30 00:45:08;;;;;;;10.70;3.53;;;16.50;99.90;;;;;;5051785;28;20049;-72
2023/06/30 00:47:34;;;;;;;15.38;3.97;;;16.50;99.90;;;;;;5051061;28;20104;-71
2023/06/30 00:50:00;;;;;;;14.48;4.22;;;16.50;99.90;;;;;;5050614;28;20554;-71
2023/06/30 00:52:26;;;;;;;17.00;3.55;;;16.50;99.90;;;;;;5051105;28;20024;-71
2023/06/30 00:54:51;;;;;;;13.38;3.92;;;16.40;99.90;;;;;;5050526;28;20359;-72
2023/06/30 00:57:17;;;;;;;15.45;3.70;;;16.50;99.90;;;;;;5049994;28;20328;-72
2023/06/30 00:59:43;;;;;;;18.35;3.95;;;16.40;99.90;;;;;;5050650;28;20151;-72
2023/06/30 01:02:17;;;;;;;16.27;3.03;;;16.40;99.90;;;;;;5051092;28;20041;-72
2023/06/30 01:04:52;;;;;;;13.77;3.80;;;16.30;99.90;;;;;;5050378;28;20113;-72
2023/06/30 01:07:25;;;;;;;9.75;3.50;;;16.30;99.90;;;;;;5051030;28;20036;-72
2023/06/30 01:09:56;;;;;;;14.27;3.30;;;16.30;99.90;;;;;;5050278;28;20021;-72
2023/06/30 01:12:23;;;;;;;15.73;3.55;;;16.30;99.90;;;;;;5050962;28;20021;-72
2023/06/30 01:14:50;;;;;;;19.52;3.80;;;16.20;99.90;;;;;;5050036;28;20051;-72
2023/06/30 01:17:19;;;;;;;17.67;3.70;;;16.20;99.90;;;;;;5050394;28;20399;-72
2023/06/30 01:19:47;;;;;;;11.50;3.33;;;16.10;99.90;;;;;;5049703;28;20048;-73
2023/06/30 01:23:00;;;;;;;15.32;3.72;;;16.10;99.90;;;;;;5050387;28;20443;-72
2023/06/30 01:25:29;;;;;;;11.20;3.33;;;16.10;99.90;;;;;;5050442;28;20108;-72
2023/06/30 01:27:56;;;;;;;17.80;4.10;;;16.00;99.90;;;;;;5048349;28;20025;-72
2023/06/30 01:30:23;;;;;;;15.32;3.90;;;15.90;99.90;;;;;;5050383;28;20439;-72
2023/06/30 01:32:54;;;;;;;16.08;4.20;;;15.80;99.90;;;;;;5049738;28;20029;-72
2023/06/30 01:35:21;;;;;;;12.63;3.92;;;15.80;99.90;;;;;;5050460;28;20025;-73
2023/06/30 01:37:47;;;;;;;13.02;4.20;;;15.70;99.90;;;;;;5049709;28;20032;-73
2023/06/30 01:40:13;;;;;;;13.55;4.03;;;15.70;99.90;;;;;;5050549;28;20425;-73
2023/06/30 01:42:39;;;;;;;13.00;3.97;;;15.60;99.90;;;;;;5050174;28;20454;-73
2023/06/30 01:45:06;;;;;;;12.50;3.92;;;15.50;99.90;;;;;;5050038;28;20029;-73
2023/06/30 01:47:32;;;;;;;20.52;4.18;;;15.40;99.90;;;;;;5050377;28;20036;-73
2023/06/30 01:49:58;;;;;;;17.20;4.25;;;15.50;99.90;;;;;;5049673;28;20041;-72
2023/06/30 01:52:24;;;;;;;14.45;3.60;;;15.50;99.90;;;;;;5050231;28;20056;-72
2023/06/30 01:54:50;;;;;;;18.85;4.15;;;15.40;99.90;;;;;;5049263;28;20025;-73
2023/06/30 01:57:16;;;;;;;20.15;3.85;;;15.40;99.90;;;;;;5050095;28;20048;-72
2023/06/30 01:59:42;;;;;;;16.80;4.25;;;15.40;99.90;;;;;;5050262;28;20108;-74
2023/06/30 02:02:07;;;;;;;11.30;3.75;;;15.30;99.90;;;;;;5049798;28;20332;-72
2023/06/30 02:04:33;;;;;;;16.05;4.22;;;15.20;99.90;;;;;;5048825;28;20036;-72
2023/06/30 02:06:59;;;;;;;18.05;3.97;;;15.20;99.90;;;;;;5049351;28;20476;-72
2023/06/30 02:09:24;;;;;;;15.40;3.80;;;15.20;99.90;;;;;;5050228;28;20036;-72
2023/06/30 02:11:50;;;;;;;15.27;4.45;;;15.10;99.90;;;;;;5049933;28;20377;-73
2023/06/30 02:14:16;;;;;;;19.83;4.28;;;15.10;99.90;;;;;;5054751;28;20052;-72
2023/06/30 02:16:42;;;;;;;18.55;4.28;;;15.10;99.90;;;;;;5054533;28;20029;-73
2023/06/30 02:19:07;;;;;;;13.85;4.07;;;15.10;99.90;;;;;;5053731;28;20112;-72
2023/06/30 02:21:33;;;;;;;15.50;4.40;;;15.10;99.90;;;;;;5054269;28;20029;-73
2023/06/30 02:23:59;;;;;;;12.27;4.00;;;15.00;99.90;;;;;;5053681;28;20474;-73
2023/06/30 02:26:24;;;;;;;17.80;4.03;;;15.00;99.90;;;;;;5053859;28;20017;-72
2023/06/30 02:28:50;;;;;;;12.38;4.10;;;15.00;99.90;;;;;;5053181;28;20052;-73
2023/06/30 02:31:16;;;;;;;19.00;4.78;;;15.00;99.90;;;;;;5053616;28;20057;-73
2023/06/30 02:33:42;;;;;;;19.20;4.13;;;15.00;99.90;;;;;;5053886;28;20080;-73
2023/06/30 02:36:07;;;;;;;17.10;4.03;;;15.00;99.90;;;;;;5053366;28;20451;-73
2023/06/30 02:38:33;;;;;;;19.65;4.75;;;15.00;99.90;;;;;;5053657;28;20025;-73
2023/06/30 02:40:59;;;;;;;14.35;4.00;;;14.90;99.90;;;;;;5053152;28;20450;-73
2023/06/30 02:43:25;;;;;;;19.63;4.25;;;14.90;99.90;;;;;;5054090;28;20048;-73
2023/06/30 02:45:50;;;;;;;19.10;4.22;;;14.90;99.90;;;;;;5052965;28;20037;-75
2023/06/30 02:48:17;;;;;;;17.08;4.65;;;14.90;99.90;;;;;;5053642;28;20021;-73
2023/06/30 02:50:43;;;;;;;15.32;4.25;;;14.90;99.90;;;;;;5053136;28;20450;-75
2023/06/30 02:53:09;;;;;;;13.73;4.47;;;14.90;99.90;;;;;;5052818;28;20029;-74
2023/06/30 02:55:36;;;;;;;20.70;4.78;;;14.80;99.90;;;;;;5053388;28;20058;-74
2023/06/30 02:58:02;;;;;;;18.85;4.80;;;14.80;99.90;;;;;;5052804;28;20025;-74
2023/06/30 03:00:28;;;;;;;12.30;4.30;;;14.70;99.90;;;;;;5051794;28;20036;-74
2023/06/30 03:02:53;;;;;;;20.88;4.95;;;14.80;99.90;;;;;;5052255;28;20071;-74
2023/06/30 03:05:19;;;;;;;17.13;4.20;;;14.80;99.90;;;;;;5053196;28;20122;-73
2023/06/30 03:07:45;;;;;;;13.57;3.80;;;14.80;99.90;;;;;;5052952;28;20059;-75
2023/06/30 03:10:12;;;;;;;14.75;4.18;;;14.70;99.90;;;;;;5052653;28;20075;-73
2023/06/30 03:12:37;;;;;;;13.30;3.53;;;14.70;99.90;;;;;;5052942;28;20052;-74
2023/06/30 03:15:04;;;;;;;10.38;3.45;;;14.70;99.90;;;;;;5052144;28;20020;-74
2023/06/30 03:17:30;;;;;;;8.75;3.22;;;14.70;99.90;;;;;;5052704;28;20181;-73
2023/06/30 03:19:56;;;;;;;14.82;3.55;;;14.70;99.90;;;;;;5052391;28;20118;-74
2023/06/30 03:22:22;;;;;;;9.85;3.28;;;14.70;99.90;;;;;;5052876;28;20032;-73
2023/06/30 03:24:48;;;;;;;10.82;3.15;;;14.70;99.90;;;;;;5052366;28;20029;-75
2023/06/30 03:27:14;;;;;;;8.80;2.63;;;14.70;99.90;;;;;;5052563;28;20370;-74
2023/06/30 03:29:39;;;;;;;9.80;3.05;;;14.70;99.90;;;;;;5052272;28;20072;-73
2023/06/30 03:32:07;;;;;;;11.50;2.88;;;14.60;99.90;;;;;;5051762;28;20052;-74
2023/06/30 03:34:33;;;;;;;8.52;2.90;;;14.70;99.90;;;;;;5052695;28;20025;-74
2023/06/30 03:36:58;;;;;;;6.72;2.67;;;14.70;99.90;;;;;;5051681;28;20044;-74
2023/06/30 03:39:24;;;;;;;7.55;2.58;;;14.60;99.90;;;;;;5052324;28;20036;-73
2023/06/30 03:41:50;;;;;;;9.85;2.90;;;14.70;99.90;;;;;;5052076;28;20116;-75
2023/06/30 03:44:17;;;;;;;8.73;2.45;;;14.70;99.90;;;;;;5053020;28;20095;-73
2023/06/30 03:46:43;;;;;;;10.20;2.90;;;14.70;99.90;;;;;;5052481;28;20106;-73
2023/06/30 03:49:09;;;;;;;7.80;2.50;;;14.70;99.90;;;;;;5051829;28;20036;-73
2023/06/30 03:51:34;;;;;;;6.70;2.45;;;14.70;99.90;;;;;;5052563;28;20043;-73
2023/06/30 03:54:00;;;;;;;7.97;2.58;;;14.70;99.90;;;;;;5051503;28;20409;-73
2023/06/30 03:56:26;;;;;;;7.35;2.38;;;14.70;99.90;;;;;;5051190;28;20021;-73
2023/06/30 03:58:51;;;;;;;6.68;2.53;;;14.70;99.90;;;;;;5051575;28;20025;-74
2023/06/30 04:01:17;;;;;;;7.90;2.25;;;14.70;99.90;;;;;;5052204;28;20115;-73
2023/06/30 04:03:43;;;;;;;10.23;2.75;;;14.70;99.90;;;;;;5051967;28;20139;-73
2023/06/30 04:06:09;;;;;;;4.20;2.15;;;14.60;99.90;;;;;;5050628;28;20029;-73
2023/06/30 04:08:35;;;;;;;4.18;1.83;;;14.70;99.90;;;;;;5052649;28;20021;-73
2023/06/30 04:11:00;;;;;;;8.15;2.30;;;14.70;99.90;;;;;;5051843;28;20033;-73
2023/06/30 04:13:26;;;;;;;4.50;1.73;;;14.80;99.90;;;;;;5052256;28;20040;-73
2023/06/30 04:15:52;;;;;;;5.30;1.88;;;14.80;99.90;;;;;;5050692;28;20132;-75
2023/06/30 04:18:17;;;;;;;7.30;2.00;;;14.80;99.90;;;;;;5052700;28;20079;-72
2023/06/30 04:20:44;;;;;;;7.00;1.98;;;14.80;99.90;;;;;;5052399;28;20044;-73
2023/06/30 04:23:09;;;;;;;6.40;1.48;;;14.80;99.90;;;;;;5051644;28;20032;-73
2023/06/30 04:25:36;;;;;;;3.88;1.60;;;14.80;99.90;;;;;;5052178;28;20025;-73
2023/06/30 04:28:02;;;;;;;5.45;1.50;;;14.70;99.90;;;;;;5051458;28;20045;-73
2023/06/30 04:30:28;;;;;;;3.50;1.40;;;14.70;99.90;;;;;;5051969;28;20474;-72
2023/06/30 04:32:53;;;;;;;4.50;1.67;;;14.70;99.90;;;;;;5051157;28;20036;-75
2023/06/30 04:35:24;;;;;;;3.25;1.40;;;14.70;99.90;;;;;;5051041;28;20032;-72
2023/06/30 04:37:51;;;;;;;5.68;1.55;;;14.80;99.90;;;;;;5051358;28;20331;-73
2023/06/30 04:40:17;;;;;;;6.95;1.40;;;14.80;99.90;;;;;;5051041;28;20029;-73
2023/06/30 04:42:43;;;;;;;5.05;1.55;;;14.80;99.90;;;;;;5051522;28;20025;-73
2023/06/30 04:45:09;;;;;;;3.55;1.23;;;14.80;99.90;;;;;;5050835;28;20036;-73
2023/06/30 04:47:34;;;;;;;4.72;1.45;;;14.80;99.90;;;;;;5051419;28;20058;-73
2023/06/30 04:50:00;;;;;;;4.07;1.60;;;14.80;99.90;;;;;;5050885;28;20021;-72
2023/06/30 04:52:26;;;;;;;3.45;1.20;;;14.80;99.90;;;;;;5051347;28;20398;-73
2023/06/30 04:54:52;;;;;;;5.25;1.50;;;14.80;99.90;;;;;;5051668;28;20036;-74
2023/06/30 04:57:18;;;;;;;5.53;1.38;;;14.80;99.90;;;;;;5049552;28;20567;-73
2023/06/30 04:59:43;;;;;;;5.20;1.55;;;14.80;99.90;;;;;;5051383;28;20075;-73
2023/06/30 05:02:09;;;;;;;4.47;1.38;;;14.80;99.90;;;;;;5051248;28;19920;-73
2023/06/30 05:04:35;;;;;;;5.43;1.25;;;14.80;99.90;;;;;;5049353;28;20032;-72
2023/06/30 05:07:01;;;;;;;3.08;1.30;;;14.80;99.90;;;;;;5049040;28;20036;-73
2023/06/30 05:09:26;;;;;;;3.70;1.10;;;14.80;99.90;;;;;;5051064;28;20040;-73
2023/06/30 05:11:52;;;;;;;3.45;1.60;;;14.80;99.90;;;;;;5050502;28;20073;-72
2023/06/30 05:14:18;;;;;;;3.33;1.40;;;14.80;99.90;;;;;;5050538;28;20173;-72
2023/06/30 05:16:43;;;;;;;2.28;0.90;;;14.90;99.90;;;;;;5051005;28;20024;-73
2023/06/30 05:19:09;;;;;;;2.35;0.95;;;14.90;99.90;;;;;;5048738;28;20060;-73
2023/06/30 05:21:35;;;;;;;4.25;1.13;;;14.90;99.90;;;;;;5050590;28;20119;-73
2023/06/30 05:24:00;;;;;;;1.63;0.88;;;14.90;99.90;;;;;;5050079;28;20415;-73
2023/06/30 05:26:26;;;;;;;2.10;0.80;;;14.90;99.90;;;;;;5050611;28;20021;-73
2023/06/30 05:28:52;;;;;;;1.88;0.80;;;14.90;99.90;;;;;;5050450;28;20053;-73
2023/06/30 05:31:17;;;;;;;2.13;1.08;;;15.00;99.90;;;;;;5050058;28;20037;-73
2023/06/30 05:33:43;;;;;;;2.75;0.80;;;15.00;99.90;;;;;;5050460;28;20020;-73
2023/06/30 05:36:09;;;;;;;2.85;0.80;;;15.00;99.90;;;;;;5049888;28;20458;-73
2023/06/30 05:38:34;;;;;;;1.48;0.90;;;15.10;99.90;;;;;;5050916;28;20025;-73
2023/06/30 05:41:00;;;;;;;1.67;0.70;;;15.10;99.90;;;;;;5049674;28;20411;-73
2023/06/30 05:43:26;;;;;;;1.25;0.60;;;15.00;99.90;;;;;;5050751;28;20063;-73
2023/06/30 05:45:52;;;;;;;1.10;0.82;;;15.10;99.90;;;;;;5050637;28;20025;-72
2023/06/30 05:48:19;;;;;;;0.73;0.52;;;15.10;99.90;;;;;;5049020;28;20021;-73
2023/06/30 05:50:45;;;;;;;1.70;0.60;;;15.10;99.90;;;;;;5049204;28;20427;-74
2023/06/30 05:53:11;;;;;;;1.95;0.70;;;15.10;99.90;;;;;;5049601;28;20037;-73
2023/06/30 05:55:37;;;;;;;1.25;0.50;;;15.20;99.90;;;;;;5050299;28;20036;-73
2023/06/30 05:58:02;;;;;;;2.53;0.82;;;15.30;99.90;;;;;;5049387;28;20071;-73
2023/06/30 06:00:28;;;;;;;0.77;0.50;;;15.20;99.90;;;;;;5050208;28;20045;-73
2023/06/30 06:02:54;;;;;;;1.08;0.65;;;15.20;99.90;;;;;;5050128;28;20033;-73
2023/06/30 06:05:20;;;;;;;1.55;0.60;;;15.20;99.90;;;;;;5049506;28;20573;-73
2023/06/30 06:07:47;;;;;;;1.70;0.70;;;15.30;99.90;;;;;;5050631;28;20100;-73
2023/06/30 06:10:13;;;;;;;1.13;0.57;;;15.30;99.90;;;;;;5049435;28;20459;-73
2023/06/30 06:12:39;;;;;;;1.33;0.70;;;15.30;99.90;;;;;;5050197;28;20039;-73
2023/06/30 06:15:09;;;;;;;1.88;0.80;;;15.30;99.90;;;;;;5049614;28;20021;-73
2023/06/30 06:17:35;;;;;;;1.73;0.85;;;15.30;99.90;;;;;;5050087;28;20024;-72
2023/06/30 06:20:00;;;;;;;1.23;0.60;;;15.30;99.90;;;;;;5049266;28;20120;-75
2023/06/30 06:22:26;;;;;;;1.60;0.60;;;15.30;99.90;;;;;;5049938;28;20090;-72
2023/06/30 06:24:52;;;;;;;1.42;0.57;;;15.30;99.90;;;;;;5050094;28;20116;-73
2023/06/30 06:27:18;;;;;;;0.70;0.40;;;15.20;99.90;;;;;;5049667;28;20165;-72
2023/06/30 06:29:43;;;;;;;0.88;0.77;;;15.30;99.90;;;;;;5049985;28;20088;-73
2023/06/30 06:32:09;;;;;;;2.47;0.80;;;15.30;99.90;;;;;;5049324;28;20056;-72
2023/06/30 06:34:35;;;;;;;1.00;0.68;;;15.30;99.90;;;;;;5049364;28;20033;-72
2023/06/30 06:37:01;;;;;;;0.77;0.60;;;15.30;99.90;;;;;;5049897;28;20078;-74
2023/06/30 06:39:27;;;;;;;4.03;1.10;;;15.30;99.90;;;;;;5050201;28;20032;-73
2023/06/30 06:41:53;;;;;;;4.32;0.68;;;15.30;99.90;;;;;;5049763;28;20029;-73
2023/06/30 06:44:18;;;;;;;2.42;0.73;;;15.30;99.90;;;;;;5049822;28;20029;-72
2023/06/30 06:46:44;;;;;;;0.47;0.43;;;15.30;99.90;;;;;;5049902;28;20028;-73
2023/06/30 06:49:10;;;;;;;2.00;0.60;;;15.40;99.90;;;;;;5049238;28;20052;-72
2023/06/30 06:51:36;;;;;;;1.13;0.60;;;15.40;99.90;;;;;;5049662;28;20036;-72
2023/06/30 06:54:02;;;;;;;1.17;0.75;;;15.40;99.90;;;;;;5049055;28;20029;-74
2023/06/30 06:56:28;;;;;;;1.40;0.70;;;15.40;99.90;;;;;;5049257;28;20025;-72
2023/06/30 06:58:53;;;;;;;0.77;0.60;;;15.40;99.90;;;;;;5049903;28;20469;-72
2023/06/30 07:01:19;;;;;;;1.60;0.50;;;15.40;99.90;;;;;;5052546;28;20129;-73
2023/06/30 07:03:46;;;;;;;1.35;0.43;;;15.40;99.90;;;;;;5053422;28;20308;-72
2023/06/30 07:06:12;;;;;;;0.82;0.60;;;15.40;99.90;;;;;;5052646;28;20033;-72
2023/06/30 07:08:39;;;;;;;1.13;0.45;;;15.50;99.90;;;;;;5053113;28;20454;-72
2023/06/30 07:11:06;;;;;;;1.90;0.65;;;15.50;99.90;;;;;;5052612;28;20037;-73
2023/06/30 07:13:32;;;;;;;0.75;0.50;;;15.50;99.90;;;;;;5052530;28;20024;-72
2023/06/30 07:15:58;;;;;;;1.38;0.40;;;15.40;99.90;;;;;;5053371;28;20033;-72
2023/06/30 07:18:25;;;;;;;0.77;0.60;;;15.30;99.90;;;;;;5052558;28;20484;-72
2023/06/30 07:20:54;;;;;;;2.50;0.90;;;15.30;99.90;;;;;;5052912;28;20036;-72
2023/06/30 07:23:20;;;;;;;1.35;0.60;;;15.30;99.90;;;;;;5052585;28;20039;-72
2023/06/30 07:25:46;;;;;;;2.17;0.80;;;15.30;99.90;;;;;;5052907;28;20108;-72
2023/06/30 07:28:12;;;;;;;0.88;0.55;;;15.30;99.90;;;;;;5050824;28;20391;-72
2023/06/30 07:30:41;;;;;;;1.77;0.50;;;15.30;99.90;;;;;;5052761;28;20436;-72
2023/06/30 07:33:06;;;;;;;1.02;0.50;;;15.40;99.90;;;;;;5052236;28;20021;-73
2023/06/30 07:35:32;;;;;;;1.15;0.40;;;15.40;99.90;;;;;;5052317;28;20025;-72
2023/06/30 07:37:58;;;;;;;0.60;0.40;;;15.50;99.90;;;;;;5052735;28;20025;-72
2023/06/30 07:40:23;;;;;;;0.65;0.50;;;15.50;99.90;;;;;;5050542;28;20037;-72
2023/06/30 07:42:49;;;;;;;1.60;0.70;;;15.60;99.90;;;;;;5052772;28;20021;-73
2023/06/30 07:45:16;;;;;;;1.83;0.60;;;15.60;99.90;;;;;;5052171;28;20396;-72
2023/06/30 07:47:45;;;;;;;1.27;0.43;;;15.80;99.90;;;;;;5052670;28;20030;-72
2023/06/30 07:50:13;;;;;;;1.40;0.50;;;15.80;99.90;;;;;;5051842;28;20037;-73
2023/06/30 07:52:42;;;;;;;1.48;0.70;;;15.80;99.90;;;;;;5052430;28;20037;-73
2023/06/30 07:55:09;;;;;;;1.40;0.57;;;15.90;99.90;;;;;;5051827;28;20055;-73
2023/06/30 07:57:34;;;;;;;1.10;0.50;;;16.00;99.90;;;;;;5052662;28;20025;-72
2023/06/30 08:00:01;;;;;;;0.68;0.30;;;16.00;99.90;;;;;;5051821;28;20462;-72
2023/06/30 08:02:26;;;;;;;0.30;0.30;;;16.00;99.90;;;;;;5052165;28;20075;-73
2023/06/30 08:04:52;;;;;;;0.25;0.22;;;16.00;99.90;;;;;;5052044;28;20029;-73
2023/06/30 08:07:18;;;;;;;0.60;0.38;;;15.90;99.90;;;;;;5051361;28;20278;-73
2023/06/30 08:09:43;;;;;;;1.15;0.22;;;16.00;99.90;;;;;;5051216;28;20112;-73
2023/06/30 08:12:09;;;;;;;1.45;0.30;;;16.10;99.90;;;;;;5050032;28;20029;-73
2023/06/30 08:14:38;;;;;;;0.35;0.30;;;16.20;99.90;;;;;;5052208;28;20373;-71
2023/06/30 08:17:04;;;;;;;0.52;0.30;;;16.30;99.90;;;;;;5051870;28;20041;-72
2023/06/30 08:19:30;;;;;;;1.90;0.30;;;16.40;99.90;;;;;;5051413;28;20130;-72
2023/06/30 08:21:55;;;;;;;0.28;0.10;;;16.50;99.90;;;;;;5050190;28;20374;-73
2023/06/30 08:24:22;;;;;;;1.50;0.20;;;16.50;99.90;;;;;;5050948;28;20025;-73
2023/06/30 08:26:48;;;;;;;2.67;0.50;;;16.60;99.90;;;;;;5051662;28;20032;-73
2023/06/30 08:29:13;;;;;;;1.05;0.50;;;16.70;99.90;;;;;;5051032;28;20048;-72
2023/06/30 08:31:40;;;;;;;0.85;0.25;;;16.90;99.90;;;;;;5051740;28;20065;-72
2023/06/30 08:34:08;;;;;;;1.50;0.40;;;16.90;99.90;;;;;;5050306;28;20021;-71
2023/06/30 08:36:34;;;;;;;3.50;0.45;;;16.90;99.90;;;;;;5051570;28;20033;-72
2023/06/30 08:39:00;;;;;;;2.50;0.43;;;17.00;99.90;;;;;;5051371;28;20368;-73
2023/06/30 08:41:28;;;;;;;0.95;0.20;;;17.00;99.90;;;;;;5050620;28;20119;-72
2023/06/30 08:43:56;;;;;;;2.20;0.28;;;17.00;99.90;;;;;;5031664;28;20493;-72
2023/06/30 08:46:24;;;;;;;0.90;0.47;;;17.10;99.90;;;;;;5030409;28;20026;-72
2023/06/30 08:48:50;;;;;;;1.85;0.70;;;17.10;99.90;;;;;;5031868;28;20053;-72
2023/06/30 08:51:17;;;;;;;1.05;0.20;;;17.00;99.90;;;;;;5030855;28;20482;-73
2023/06/30 08:53:44;;;;;;;0.95;0.40;;;17.00;99.90;;;;;;5031406;28;20435;-72
2023/06/30 08:56:10;;;;;;;0.95;0.60;;;16.90;99.90;;;;;;5031446;28;20332;-73
2023/06/30 08:58:37;;;;;;;1.38;0.55;;;16.90;99.90;;;;;;5030955;28;20101;-72
2023/06/30 09:01:03;;;;;;;2.35;1.10;;;16.90;99.90;;;;;;5029629;28;20037;-72
2023/06/30 09:03:29;;;;;;;1.20;0.85;;;16.90;99.90;;;;;;5030676;28;20729;-72
2023/06/30 09:05:58;;;;;;;0.50;0.50;;;16.90;99.90;;;;;;5031529;28;20454;-72
2023/06/30 09:08:40;;;;;;;1.40;0.45;;;16.90;99.90;;;;;;5030698;28;20039;-72
2023/06/30 09:11:08;;;;;;;1.67;0.57;;;16.90;99.90;;;;;;5031280;28;20105;-73
2023/06/30 09:13:37;;;;;;;0.98;0.40;;;16.90;99.90;;;;;;5030877;28;20112;-73
2023/06/30 09:16:06;;;;;;;2.15;0.50;;;16.90;99.90;;;;;;5031275;28;20351;-73
2023/06/30 09:18:33;;;;;;;0.77;0.77;;;16.80;99.90;;;;;;5030424;28;20538;-72
2023/06/30 09:20:59;;;;;;;3.00;1.00;;;16.90;99.90;;;;;;5030766;28;20045;-72
2023/06/30 09:23:27;;;;;;;1.60;0.88;;;16.90;99.90;;;;;;5030633;28;20443;-73
2023/06/30 09:25:53;;;;;;;1.10;0.65;;;17.00;99.90;;;;;;5031133;28;20036;-72
2023/06/30 09:28:19;;;;;;;1.08;0.60;;;17.10;99.90;;;;;;5030327;28;20049;-72
2023/06/30 09:30:46;;;;;;;2.33;0.50;;;17.20;99.90;;;;;;5031150;28;20056;-73
2023/06/30 09:33:16;;;;;;;0.40;0.40;;;17.20;99.90;;;;;;5030816;28;20040;-74
2023/06/30 09:35:44;;;;;;;0.32;0.30;;;17.30;99.90;;;;;;5030869;28;20043;-72
2023/06/30 09:38:14;;;;;;;0.30;0.30;;;17.40;99.90;;;;;;5029469;28;20028;-72
2023/06/30 09:40:44;;;;;;;0.95;0.38;;;17.50;99.90;;;;;;5030855;28;20040;-73
2023/06/30 09:43:18;;;;;;;0.20;0.20;;;17.50;99.90;;;;;;5030881;28;20025;-73
2023/06/30 09:45:46;;;;;;;0.75;0.40;;;17.70;99.90;;;;;;5030706;28;20025;-72
2023/06/30 09:48:13;;;;;;;0.57;0.57;;;17.80;99.90;;;;;;5030141;28;20478;-74
2023/06/30 09:50:40;;;;;;;0.50;0.30;;;17.80;99.90;;;;;;5029769;28;20083;-73
2023/06/30 09:53:07;;;;;;;0.82;0.60;;;17.90;99.90;;;;;;5029783;28;20493;-72
2023/06/30 09:55:51;;;;;;;0.65;0.60;;;17.90;99.90;;;;;;5029896;28;20031;-73
2023/06/30 09:58:18;;;;;;;0.70;0.40;;;17.90;99.90;;;;;;5029812;28;20112;-73
2023/06/30 10:00:45;;;;;;;0.50;0.40;;;17.80;99.90;;;;;;5039787;28;20033;-73
2023/06/30 10:03:16;;;;;;;0.70;0.52;;;17.70;99.90;;;;;;5050648;28;20466;-73
2023/06/30 10:05:42;;;;;;;3.85;3.47;;;17.70;99.90;;;;;;5051426;28;20032;-73
2023/06/30 10:08:09;;;;;;;1.20;1.10;;;17.90;99.90;;;;;;5050646;28;20108;-72
2023/06/30 10:10:35;;;;;;;0.90;0.65;;;18.00;99.90;;;;;;5048790;28;20451;-73
2023/06/30 10:13:02;;;;;;;0.77;0.65;;;18.10;99.90;;;;;;5048111;28;20036;-73
2023/06/30 10:15:29;;;;;;;2.33;0.68;;;18.20;99.90;;;;;;5048814;28;20064;-73
2023/06/30 10:17:58;;;;;;;1.58;0.70;;;18.20;99.90;;;;;;5049854;28;20065;-72
2023/06/30 10:20:24;;;;;;;1.58;0.73;;;18.20;99.90;;;;;;5049597;28;20029;-73
2023/06/30 10:22:51;;;;;;;0.50;0.50;;;18.30;99.90;;;;;;5049556;28;20354;-72
2023/06/30 10:25:21;;;;;;;0.40;0.40;;;18.30;99.90;;;;;;5049764;28;20049;-73
2023/06/30 10:27:48;;;;;;;1.40;0.40;;;18.30;99.90;;;;;;5049773;28;20033;-72
2023/06/30 10:30:14;;;;;;;1.42;0.50;;;18.40;99.90;;;;;;5050318;28;20403;-72
2023/06/30 10:32:40;;;;;;;0.47;0.40;;;18.40;99.90;;;;;;5049201;28;20108;-73
2023/06/30 10:35:08;;;;;;;0.32;0.32;;;18.50;99.90;;;;;;5053799;28;20501;-73
2023/06/30 10:37:34;;;;;;;0.40;0.40;;;18.40;99.90;;;;;;5053407;28;20370;-73
2023/06/30 10:40:00;;;;;;;0.73;0.50;;;18.40;99.90;;;;;;5054183;28;20037;-73
2023/06/30 10:42:36;;;;;;;1.10;0.50;;;18.20;99.90;;;;;;5052460;28;20593;-73
2023/06/30 10:45:02;;;;;;;0.60;0.57;;;18.10;99.90;;;;;;5053898;28;20032;-73
2023/06/30 10:47:28;;;;;;;0.63;0.57;;;18.10;99.90;;;;;;5052708;28;20021;-73
2023/06/30 10:49:54;;;;;;;0.70;0.50;;;18.10;99.90;;;;;;5053362;28;20159;-73
2023/06/30 10:52:29;;;;;;;0.85;0.68;;;18.20;99.90;;;;;;5052897;28;20029;-74
2023/06/30 10:55:03;;;;;;;0.40;0.40;;;18.20;99.90;;;;;;5053665;28;20029;-73
2023/06/30 10:57:35;;;;;;;0.80;0.60;;;18.30;99.90;;;;;;5052597;28;20343;-73
2023/06/30 11:00:11;;;;;;;0.57;0.50;;;18.30;99.90;;;;;;5053454;28;20032;-73
2023/06/30 11:02:45;;;;;;;1.33;0.40;;;18.50;99.90;;;;;;5052254;28;20633;-73
2023/06/30 11:05:21;;;;;;;1.42;0.63;;;18.50;99.90;;;;;;5053654;28;20029;-73
2023/06/30 11:07:52;;;;;;;0.95;0.52;;;18.70;99.90;;;;;;5051504;28;20139;-73
2023/06/30 11:10:43;;;;;;;1.02;0.50;;;18.90;99.90;;;;;;5052998;28;20035;-75
2023/06/30 11:13:10;;;;;;;1.38;0.60;;;18.80;99.90;;;;;;5052831;28;20033;-73
2023/06/30 11:15:43;;;;;;;0.88;0.70;;;18.80;99.90;;;;;;5052384;28;20462;-73
2023/06/30 11:18:20;;;;;;;1.48;0.60;;;18.80;99.90;;;;;;5053237;28;20116;-73
2023/06/30 11:21:06;;;;;;;3.53;0.68;;;18.70;99.90;;;;;;5052702;28;20055;-72
2023/06/30 11:23:39;;;;;;;1.35;0.70;;;18.70;99.90;;;;;;5052099;28;20521;-72
2023/06/30 11:26:13;;;;;;;0.60;0.60;;;18.60;99.90;;;;;;5051364;28;20021;-73
2023/06/30 11:28:40;;;;;;;1.40;1.00;;;18.50;99.90;;;;;;5051773;28;20068;-72
2023/06/30 11:31:06;;;;;;;2.33;1.00;;;18.40;99.90;;;;;;5052844;28;20029;-72
2023/06/30 11:33:39;;;;;;;1.92;0.88;;;18.30;99.90;;;;;;5052024;28;20036;-72
2023/06/30 11:36:11;;;;;;;1.05;0.95;;;18.30;99.90;;;;;;5052678;28;20025;-72
2023/06/30 11:38:43;;;;;;;1.20;1.10;;;18.20;99.90;;;;;;5052140;28;20111;-72
2023/06/30 11:41:09;;;;;;;1.33;0.80;;;18.20;99.90;;;;;;5052563;28;20044;-72
2023/06/30 11:43:34;;;;;;;1.20;1.10;;;18.30;99.90;;;;;;5051991;28;20033;-72
2023/06/30 11:46:00;;;;;;;2.03;1.15;;;18.30;99.90;;;;;;5051542;28;20074;-71
2023/06/30 11:48:38;;;;;;;1.45;1.00;;;18.30;99.90;;;;;;5052181;28;20071;-73
2023/06/30 11:51:04;;;;;;;0.80;0.80;;;18.30;99.90;;;;;;5052743;28;20037;-72
2023/06/30 11:53:30;;;;;;;1.10;1.00;;;18.30;99.90;;;;;;5052205;28;20036;-72
2023/06/30 11:56:01;;;;;;;1.65;1.00;;;18.30;99.90;;;;;;5052737;28;20032;-72
2023/06/30 11:58:27;;;;;;;2.53;0.95;;;18.20;99.90;;;;;;5052044;28;20024;-73
2023/06/30 12:00:56;;;;;;;0.80;0.80;;;18.30;99.90;;;;;;5052613;28;20044;-73
2023/06/30 12:03:22;;;;;;;1.85;1.05;;;18.20;99.90;;;;;;5052308;28;20363;-75
2023/06/30 12:05:57;;;;;;;2.78;1.42;;;18.20;99.90;;;;;;5052672;28;20025;-73
2023/06/30 12:08:27;;;;;;;3.58;1.75;;;18.20;99.90;;;;;;5052480;28;20020;-75
2023/06/30 12:10:53;;;;;;;1.23;1.10;;;18.20;99.90;;;;;;5052796;28;20025;-74
2023/06/30 12:13:20;;;;;;;2.75;1.40;;;18.00;99.90;;;;;;5052943;28;20047;-73
2023/06/30 12:15:54;;;;;;;3.33;1.40;;;18.00;99.90;;;;;;5051702;28;20387;-73
2023/06/30 12:18:37;;;;;;;1.67;1.20;;;18.00;99.90;;;;;;5050633;28;20404;-73
2023/06/30 12:21:10;;;;;;;1.35;1.20;;;18.10;99.90;;;;;;5051974;28;20032;-73
2023/06/30 12:23:43;;;;;;;0.88;0.88;;;18.10;99.90;;;;;;5051225;28;20398;-73
2023/06/30 12:26:10;;;;;;;2.42;1.20;;;18.20;99.90;;;;;;5051380;28;20044;-73
2023/06/30 12:28:36;;;;;;;1.30;1.05;;;18.10;99.90;;;;;;5051310;28;20482;-73
2023/06/30 12:31:02;;;;;;;5.47;1.10;;;18.20;99.90;;;;;;5051952;28;20111;-73
2023/06/30 12:33:28;;;;;;;1.50;0.95;;;18.20;99.90;;;;;;5051721;28;20359;-73
2023/06/30 12:35:54;;;;;;;2.40;1.00;;;18.30;99.90;;;;;;5052093;28;20194;-73
2023/06/30 12:38:20;;;;;;;1.52;0.90;;;18.20;99.90;;;;;;5051753;28;20107;-73
2023/06/30 12:40:45;;;;;;;1.10;1.00;;;18.20;99.90;;;;;;5051207;28;20045;-72
2023/06/30 12:43:11;;;;;;;1.20;1.10;;;18.30;99.90;;;;;;5052122;28;20031;-72